createdAt,value
2022-12-13T00:01:21.024Z,70.25
2022-12-13T00:04:05.721Z,70.43
2022-12-13T00:06:33.136Z,71.28
2022-12-13T00:09:00.349Z,71.94
2022-12-13T00:11:27.848Z,71.84
2022-12-13T00:14:38.142Z,71.37
2022-12-13T00:17:25.041Z,71.35
2022-12-13T00:19:51.586Z,71.25
2022-12-13T00:22:18.123Z,70.55
2022-12-13T00:24:46.220Z,70.42
2022-12-13T00:27:12.915Z,70.12
2022-12-13T00:29:39.542Z,69.61
2022-12-13T00:32:06.166Z,70.01
2022-12-13T00:34:32.740Z,69.65
2022-12-13T00:36:59.603Z,69.65
2022-12-13T00:39:26.679Z,69.54
2022-12-13T00:41:53.181Z,69.66
2022-12-13T00:44:20.185Z,69.87
2022-12-13T00:46:47.199Z,69.45
2022-12-13T00:49:29.216Z,69.43
2022-12-13T00:51:55.799Z,68.67
2022-12-13T00:54:22.484Z,68.80
2022-12-13T00:56:51.219Z,70.00
2022-12-13T01:02:35.299Z,69.21
2022-12-13T01:05:01.877Z,69.72
2022-12-13T01:07:28.437Z,69.96
2022-12-13T01:09:57.489Z,69.63
2022-12-13T01:12:24.384Z,70.03
2022-12-13T01:14:55.891Z,68.61
2022-12-13T01:17:38.231Z,69.53
2022-12-13T01:20:06.300Z,70.43
2022-12-13T01:22:32.873Z,70.15
2022-12-13T01:24:59.442Z,70.54
2022-12-13T01:31:46.783Z,70.09
2022-12-13T01:34:15.442Z,70.27
2022-12-13T01:36:44.675Z,69.62
2022-12-13T01:39:15.037Z,70.36
2022-12-13T01:41:43.431Z,70.73
2022-12-13T01:44:47.602Z,71.51
2022-12-13T01:52:38.763Z,72.04
2022-12-13T01:55:07.690Z,72.84
2022-12-13T01:57:40.767Z,72.89
2022-12-13T02:00:11.255Z,73.26
2022-12-13T02:06:44.175Z,73.19
2022-12-13T02:09:11.414Z,74.01
2022-12-13T02:14:13.282Z,73.25
2022-12-13T02:16:57.140Z,73.62
2022-12-13T02:19:48.624Z,73.37
2022-12-13T02:22:18.199Z,73.63
2022-12-13T02:25:28.612Z,73.43
2022-12-13T02:28:30.453Z,74.27
2022-12-13T02:31:23.207Z,74.41
2022-12-13T02:33:49.945Z,73.86
2022-12-13T02:36:57.370Z,73.62
2022-12-13T02:39:32.292Z,73.37
2022-12-13T02:42:06.094Z,74.14
2022-12-13T02:44:42.166Z,74.32
2022-12-13T02:47:51.642Z,73.69
2022-12-13T02:50:53.376Z,73.68
2022-12-13T02:53:29.822Z,73.84
2022-12-13T02:56:00.305Z,73.90
2022-12-13T02:58:34.605Z,72.96
2022-12-13T03:01:28.044Z,72.86
2022-12-13T03:04:10.353Z,73.10
2022-12-13T03:06:58.680Z,74.38
2022-12-13T03:09:58.745Z,74.33
2022-12-13T03:12:55.282Z,72.86
2022-12-13T03:15:29.587Z,72.82
2022-12-13T03:18:01.931Z,72.06
2022-12-13T03:23:20.478Z,72.90
2022-12-13T03:25:51.143Z,72.43
2022-12-13T03:28:18.116Z,72.99
2022-12-13T03:35:34.117Z,72.23
2022-12-13T03:38:01.961Z,72.39
2022-12-13T03:40:30.236Z,71.31
2022-12-13T03:42:57.108Z,71.45
2022-12-13T03:45:24.061Z,71.36
2022-12-13T03:52:55.573Z,71.69
2022-12-13T03:53:37.444Z,70.05
2022-12-13T03:56:06.362Z,70.70
2022-12-13T03:59:05.982Z,70.07
2022-12-13T04:01:37.471Z,69.69
2022-12-13T04:21:20.643Z,70.90
2022-12-13T04:23:47.592Z,70.89
2022-12-13T04:26:32.916Z,70.28
2022-12-13T04:28:59.467Z,70.25
2022-12-13T04:31:26.028Z,71.06
2022-12-13T04:33:52.609Z,70.90
2022-12-13T04:40:27.490Z,70.96
2022-12-13T04:42:54.726Z,70.35
2022-12-13T04:45:22.765Z,70.39
2022-12-13T04:47:49.947Z,69.59
2022-12-13T04:50:17.054Z,69.06
2022-12-13T04:52:44.317Z,69.04
2022-12-13T04:57:52.199Z,69.50
2022-12-13T05:00:18.919Z,69.39
2022-12-13T05:02:45.533Z,69.75
2022-12-13T05:05:12.373Z,69.63
2022-12-13T05:07:42.612Z,69.61
2022-12-13T05:14:37.158Z,69.41
2022-12-13T08:00:28.939Z,67.21
2022-12-13T08:09:01.420Z,62.75
2022-12-13T08:11:28.183Z,62.45
2022-12-13T08:13:55.054Z,62.96
2022-12-13T08:17:11.809Z,63.34
2022-12-13T08:52:15.328Z,61.16
2022-12-13T08:54:41.902Z,61.67
2022-12-13T08:57:11.513Z,60.69
2022-12-13T08:59:38.090Z,60.53
2022-12-13T09:02:05.462Z,59.92
2022-12-13T09:15:22.308Z,57.95
2022-12-13T09:17:52.304Z,56.93
2022-12-13T09:23:01.303Z,56.69
2022-12-13T09:25:36.550Z,56.31
2022-12-13T09:28:06.317Z,58.31
2022-12-13T09:31:52.627Z,55.77
2022-12-13T09:34:46.041Z,54.84
2022-12-13T09:37:13.600Z,54.32
2022-12-13T09:39:55.517Z,53.49
2022-12-13T09:42:30.913Z,53.33
2022-12-13T09:45:04.285Z,53.63
2022-12-13T09:47:36.045Z,53.50
2022-12-13T09:50:08.267Z,52.47
2022-12-13T09:52:44.205Z,52.37
2022-12-13T09:55:20.216Z,51.75
2022-12-13T09:57:47.786Z,51.22
2022-12-13T10:00:20.500Z,51.32
2022-12-13T10:02:53.580Z,51.03
2022-12-13T10:05:35.891Z,50.74
2022-12-13T10:22:05.057Z,49.43
2022-12-13T10:24:53.844Z,49.45
2022-12-13T10:27:28.857Z,50.01
2022-12-13T10:34:23.356Z,50.37
2022-12-13T15:32:23.162Z,58.37
2022-12-13T15:34:51.529Z,59.13
2022-12-13T15:37:33.134Z,59.29
2022-12-13T15:40:06.756Z,59.35
2022-12-13T15:42:40.048Z,59.45
2022-12-13T15:45:20.040Z,59.54
2022-12-13T15:55:37.048Z,60.26
2022-12-13T15:58:03.940Z,60.22
2022-12-13T16:00:34.684Z,60.36
2022-12-13T16:03:16.161Z,60.82
2022-12-13T16:05:49.101Z,60.57
2022-12-13T16:08:38.137Z,60.72
2022-12-13T16:11:06.862Z,60.66
2022-12-13T16:13:37.101Z,60.84
2022-12-13T16:16:10.135Z,61.08
2022-12-13T16:18:51.259Z,61.22
2022-12-13T16:40:30.019Z,63.28
2022-12-13T16:43:03.271Z,63.47
2022-12-13T16:45:42.743Z,63.33
2022-12-13T16:48:15.588Z,63.43
2022-12-13T16:50:44.393Z,63.37
2022-12-13T16:53:18.802Z,63.40
2022-12-13T16:55:46.171Z,63.28
2022-12-13T16:58:26.009Z,63.12
2022-12-13T17:00:52.859Z,64.18
2022-12-13T17:03:26.036Z,64.83
2022-12-13T17:05:58.933Z,64.49
2022-12-13T17:08:25.775Z,64.38
2022-12-13T17:10:58.227Z,64.84
2022-12-13T17:13:26.036Z,64.93
2022-12-13T17:15:59.479Z,65.01
2022-12-13T17:18:26.557Z,65.46
2022-12-13T17:20:58.421Z,66.10
2022-12-13T17:23:27.226Z,66.03
2022-12-13T17:25:58.014Z,66.45
2022-12-13T17:28:25.671Z,66.37
2022-12-13T17:30:54.841Z,66.30
2022-12-13T17:33:22.225Z,66.11
2022-12-13T17:35:48.921Z,66.18
2022-12-13T17:38:15.438Z,66.05
2022-12-13T17:40:42.171Z,66.49
2022-12-13T17:43:27.210Z,66.52
2022-12-13T17:46:06.121Z,66.42
2022-12-13T17:48:40.683Z,66.76
2022-12-13T17:51:09.281Z,67.16
2022-12-13T17:53:36.880Z,67.73
2022-12-13T17:56:06.570Z,68.87
2022-12-13T17:58:34.237Z,68.18
2022-12-13T18:01:12.219Z,67.46
2022-12-13T18:03:38.910Z,67.30
2022-12-13T18:06:07.203Z,67.58
2022-12-13T18:08:38.915Z,67.48
2022-12-13T18:13:54.894Z,67.52
2022-12-13T18:16:23.836Z,67.38
2022-12-13T18:18:54.720Z,67.56
2022-12-13T18:21:22.881Z,67.54
2022-12-13T18:26:24.921Z,68.85
2022-12-13T18:28:52.409Z,67.85
2022-12-13T18:31:24.102Z,68.43
2022-12-13T18:33:52.533Z,68.08
2022-12-13T18:36:21.688Z,68.40
2022-12-13T18:38:48.719Z,69.01
2022-12-13T18:41:18.393Z,68.91
2022-12-13T18:43:45.919Z,68.28
2022-12-13T18:46:14.075Z,67.44
2022-12-13T18:48:44.111Z,67.11
2022-12-13T18:51:10.865Z,67.43
2022-12-13T18:53:38.448Z,68.54
2022-12-13T18:56:11.671Z,67.39
2022-12-13T18:58:43.076Z,68.13
2022-12-13T19:01:12.819Z,68.89
2022-12-13T19:03:40.160Z,67.95
2022-12-13T19:06:08.072Z,67.48
2022-12-13T19:08:36.542Z,67.25
2022-12-13T19:11:06.538Z,67.38
2022-12-13T19:13:33.162Z,68.01
2022-12-13T19:16:08.444Z,68.39
2022-12-13T19:18:37.026Z,68.67
2022-12-13T19:21:07.740Z,68.50
2022-12-13T19:23:35.465Z,68.65
2022-12-13T19:26:06.728Z,68.41
2022-12-13T19:28:34.324Z,68.26
2022-12-13T19:31:11.323Z,68.45
2022-12-13T19:33:37.968Z,68.72
2022-12-13T19:36:05.967Z,68.66
2022-12-13T19:38:32.871Z,68.58
2022-12-13T19:41:01.184Z,68.66
2022-12-13T19:43:28.487Z,68.81
2022-12-13T19:45:55.271Z,68.56
2022-12-13T19:56:27.354Z,67.51
2022-12-13T19:58:54.335Z,67.87
2022-12-13T20:01:21.073Z,68.62
2022-12-13T20:03:48.079Z,68.40
2022-12-13T20:06:20.095Z,68.77
2022-12-13T20:08:47.034Z,68.97
2022-12-13T20:11:17.180Z,68.95
2022-12-13T20:13:43.811Z,68.37
2022-12-13T20:16:17.312Z,68.58
2022-12-13T20:18:44.036Z,68.45
2022-12-13T20:21:13.054Z,68.18
2022-12-13T20:23:42.247Z,68.80
2022-12-13T20:26:19.398Z,69.15
2022-12-13T20:28:46.361Z,69.05
2022-12-13T20:31:16.522Z,68.85
2022-12-13T20:33:43.098Z,69.45
2022-12-13T20:36:26.359Z,69.66
2022-12-13T20:38:56.304Z,68.78
2022-12-13T20:41:42.832Z,69.38
2022-12-13T20:44:12.264Z,69.77
2022-12-13T20:46:39.703Z,69.57
2022-12-13T20:49:08.765Z,68.77
2022-12-13T20:51:37.661Z,68.74
2022-12-13T20:54:04.800Z,69.31
2022-12-13T20:56:35.269Z,69.18
2022-12-13T20:59:03.531Z,68.78
2022-12-13T21:01:32.440Z,68.62
2022-12-13T21:04:01.103Z,68.70
2022-12-13T21:06:28.799Z,68.42
2022-12-13T21:08:59.904Z,68.16
2022-12-13T21:11:38.439Z,68.03
2022-12-13T21:14:11.139Z,68.23
2022-12-13T21:16:41.936Z,68.21
2022-12-13T21:30:03.765Z,67.94
2022-12-13T21:32:30.413Z,67.88
2022-12-13T21:38:44.263Z,67.47
2022-12-13T21:41:32.667Z,67.62
2022-12-13T21:44:01.885Z,67.46
2022-12-13T21:46:47.908Z,67.02
2022-12-13T21:49:16.467Z,66.94
2022-12-13T21:57:12.614Z,67.22
2022-12-13T21:59:39.197Z,67.69
2022-12-13T22:02:18.169Z,68.06
2022-12-13T22:04:48.162Z,67.65
2022-12-13T22:29:39.606Z,68.27
2022-12-13T22:32:06.587Z,68.66
2022-12-13T22:34:33.282Z,69.17
2022-12-13T22:37:00.651Z,68.36
2022-12-13T22:39:27.204Z,69.81
2022-12-13T22:41:53.749Z,71.48
2022-12-13T22:44:23.173Z,73.04
2022-12-13T22:46:49.732Z,73.04
2022-12-13T22:49:16.375Z,73.06
2022-12-13T22:51:43.271Z,72.65
2022-12-13T22:54:10.094Z,72.64
2022-12-13T22:56:36.728Z,71.40
2022-12-13T22:59:21.550Z,71.23
2022-12-13T23:01:48.500Z,70.35
2022-12-13T23:04:15.506Z,70.53
2022-12-13T23:06:42.432Z,69.76
2022-12-13T23:51:07.360Z,71.12
2022-12-13T23:53:34.521Z,71.61
2022-12-13T23:56:01.408Z,72.90
